Time;durP1;ratioP1;P1;durP2;ratioP2;P2;SDS_P1;SDS_P2;PMS_P1;PMS_P2;Temp;Humidity;BMP_temperature;BMP_pressure;BME280_temperature;BME280_humidity;BME280_pressure;Samples;Min_cycle;Max_cycle;Signal;HPM_P1;HPM_P2
2021/01/10 00:00:26;;;;;;;4.03;1.90;;;0.60;1.00;;;;;;5055401;28;20264;-75
2021/01/10 00:02:52;;;;;;;2.63;2.42;;;0.50;1.00;;;;;;5055716;28;20266;-75
2021/01/10 00:05:18;;;;;;;2.35;1.73;;;;;;;;;;5055431;28;20205;-76
2021/01/10 00:07:44;;;;;;;4.90;2.83;;;;;;;;;;5041042;28;20181;-75
2021/01/10 00:10:10;;;;;;;3.00;2.47;;;;;;;;;;5053640;28;20406;-75
2021/01/10 00:12:37;;;;;;;4.05;2.17;;;0.60;1.00;;;;;;5055624;28;20398;-75
2021/01/10 00:15:05;;;;;;;3.05;2.45;;;0.60;1.00;;;;;;5053404;28;20271;-75
2021/01/10 00:17:30;;;;;;;1.92;1.80;;;0.50;1.00;;;;;;5055149;28;20202;-75
2021/01/10 00:19:56;;;;;;;5.20;2.73;;;;;;;;;;5055199;28;20192;-75
2021/01/10 00:22:23;;;;;;;4.57;2.43;;;;;;;;;;5055152;28;20394;-75
2021/01/10 00:24:49;;;;;;;2.10;1.88;;;0.50;1.00;;;;;;5034796;28;20435;-75
2021/01/10 00:27:17;;;;;;;3.70;2.80;;;0.50;1.00;;;;;;5034784;28;20176;-76
2021/01/10 00:29:46;;;;;;;3.33;2.03;;;0.50;1.00;;;;;;5034585;28;20160;-76
2021/01/10 00:32:12;;;;;;;3.15;1.85;;;0.60;1.00;;;;;;5038970;28;20175;-75
2021/01/10 00:34:38;;;;;;;1.50;1.40;;;0.50;1.00;;;;;;5053979;28;20182;-75
2021/01/10 00:37:13;;;;;;;5.75;2.25;;;0.60;1.00;;;;;;5052507;28;20217;-75
2021/01/10 00:39:39;;;;;;;6.30;2.55;;;0.60;1.00;;;;;;5039456;28;20200;-76
2021/01/10 00:42:09;;;;;;;2.60;2.40;;;0.60;1.00;;;;;;5035142;28;20245;-76
2021/01/10 00:44:36;;;;;;;6.53;3.50;;;0.60;1.00;;;;;;5039234;28;20237;-75
2021/01/10 00:47:03;;;;;;;2.80;2.60;;;0.50;1.00;;;;;;5054481;28;20160;-76
2021/01/10 00:49:29;;;;;;;2.63;2.42;;;;;;;;;;5054740;28;20160;-75
2021/01/10 00:51:55;;;;;;;6.00;2.78;;;;;;;;;;5054506;28;20187;-76
2021/01/10 00:54:21;;;;;;;12.27;2.60;;;;;;;;;;5037766;28;20183;-74
2021/01/10 00:56:47;;;;;;;2.67;2.40;;;;;;;;;;5054644;28;20238;-74
2021/01/10 00:59:13;;;;;;;3.45;2.58;;;0.60;1.00;;;;;;5054494;28;20697;-74
2021/01/10 01:01:39;;;;;;;5.78;3.55;;;;;;;;;;5054374;28;20168;-74
2021/01/10 01:04:05;;;;;;;1.93;1.70;;;;;;;;;;5054465;28;20240;-74
2021/01/10 01:06:32;;;;;;;3.63;2.33;;;;;;;;;;5036036;28;20778;-74
2021/01/10 01:08:58;;;;;;;3.13;2.83;;;;;;;;;;5034516;28;20569;-74
2021/01/10 01:11:34;;;;;;;2.75;2.40;;;0.40;1.00;;;;;;5034304;28;20188;-74
2021/01/10 01:13:59;;;;;;;3.33;2.20;;;0.30;1.00;;;;;;5035169;28;20243;-78
2021/01/10 01:16:25;;;;;;;2.90;2.00;;;;;;;;;;5046072;28;20192;-79
2021/01/10 01:18:51;;;;;;;1.67;1.40;;;0.40;1.00;;;;;;5054183;28;20270;-78
2021/01/10 01:21:18;;;;;;;2.28;1.80;;;0.40;1.00;;;;;;5054366;28;20398;-78
2021/01/10 01:23:44;;;;;;;5.80;2.88;;;0.40;1.00;;;;;;5053404;28;20564;-79
2021/01/10 01:26:21;;;;;;;2.57;2.10;;;0.30;1.00;;;;;;5041438;28;20199;-79
2021/01/10 01:28:47;;;;;;;3.75;2.67;;;0.40;1.00;;;;;;5051553;28;21011;-75
2021/01/10 01:31:16;;;;;;;5.55;2.10;;;0.40;1.00;;;;;;5043286;28;20180;-75
2021/01/10 01:33:42;;;;;;;2.38;1.63;;;;;;;;;;5044913;28;20528;-74
2021/01/10 01:36:12;;;;;;;2.60;2.38;;;0.40;1.00;;;;;;5033684;28;20161;-75
2021/01/10 01:38:42;;;;;;;9.70;1.85;;;0.40;1.00;;;;;;5040816;28;20156;-75
2021/01/10 01:41:08;;;;;;;2.75;2.10;;;0.30;1.00;;;;;;5050632;28;20933;-75
2021/01/10 01:43:39;;;;;;;1.63;1.52;;;0.40;1.00;;;;;;5048606;28;20186;-77
2021/01/10 01:46:07;;;;;;;6.05;2.65;;;0.40;1.00;;;;;;5053777;28;20148;-77
2021/01/10 01:48:33;;;;;;;2.17;1.88;;;0.30;1.00;;;;;;5042763;28;20255;-79
2021/01/10 01:51:00;;;;;;;4.30;2.00;;;0.30;1.00;;;;;;5033888;28;20492;-75
2021/01/10 01:53:29;;;;;;;5.10;1.90;;;;;;;;;;5047565;28;20175;-79
2021/01/10 01:55:56;;;;;;;3.58;2.13;;;0.30;1.00;;;;;;5053710;28;20160;-77
2021/01/10 01:58:22;;;;;;;4.22;2.33;;;;;;;;;;5039593;28;20258;-77
2021/01/10 02:00:49;;;;;;;5.57;2.55;;;0.30;1.00;;;;;;5053272;28;20626;-77
2021/01/10 02:03:33;;;;;;;5.35;3.10;;;0.30;1.00;;;;;;5053667;28;20199;-77
2021/01/10 02:06:04;;;;;;;4.20;2.60;;;0.20;1.00;;;;;;5053365;28;20156;-77
2021/01/10 02:08:34;;;;;;;3.72;2.30;;;0.20;1.00;;;;;;5050639;28;20182;-78
2021/01/10 02:11:02;;;;;;;2.58;2.33;;;0.20;1.00;;;;;;5033678;28;20673;-77
2021/01/10 02:13:31;;;;;;;6.30;2.22;;;0.10;1.00;;;;;;5040240;28;20164;-75
2021/01/10 02:15:58;;;;;;;3.38;2.55;;;0.10;1.00;;;;;;5051525;28;20624;-75
2021/01/10 02:18:25;;;;;;;6.18;2.90;;;;;;;;;;5053058;28;20521;-75
2021/01/10 02:20:51;;;;;;;2.53;2.20;;;;;;;;;;5051328;28;20688;-75
2021/01/10 02:23:25;;;;;;;3.45;2.80;;;0.00;1.00;;;;;;5048843;28;20169;-75
2021/01/10 02:25:52;;;;;;;3.42;2.00;;;;;;;;;;5050472;28;20179;-76
2021/01/10 02:28:22;;;;;;;2.40;2.20;;;0.00;1.00;;;;;;5039169;28;20237;-77
2021/01/10 02:30:49;;;;;;;3.17;2.10;;;0.00;1.00;;;;;;5041792;28;20168;-78
2021/01/10 02:33:24;;;;;;;3.53;2.63;;;0.00;1.00;;;;;;5047673;28;20171;-79
2021/01/10 02:35:50;;;;;;;3.83;2.90;;;;;;;;;;5046658;28;20194;-78
2021/01/10 02:38:34;;;;;;;4.45;2.50;;;0.00;1.00;;;;;;5050357;28;20204;-78
2021/01/10 02:41:29;;;;;;;2.63;1.88;;;0.10;1.00;;;;;;5052986;28;20162;-78
2021/01/10 02:44:08;;;;;;;5.15;2.33;;;0.00;1.00;;;;;;5053046;28;20235;-78
2021/01/10 02:46:36;;;;;;;6.28;2.47;;;-0.10;1.00;;;;;;5043613;28;20160;-78
2021/01/10 02:49:02;;;;;;;3.40;2.40;;;-0.10;1.00;;;;;;5038825;28;20255;-79
2021/01/10 02:51:28;;;;;;;1.45;1.35;;;-0.20;1.00;;;;;;5050382;28;20649;-77
2021/01/10 02:53:54;;;;;;;10.90;2.67;;;-0.20;1.00;;;;;;5037230;28;20251;-77
2021/01/10 02:56:20;;;;;;;2.47;1.70;;;;;;;;;;5039320;28;20199;-77
2021/01/10 02:58:47;;;;;;;1.70;1.60;;;-0.20;1.00;;;;;;5045442;28;20650;-77
2021/01/10 03:01:14;;;;;;;2.47;2.05;;;-0.20;1.00;;;;;;5058205;28;20171;-75
2021/01/10 03:03:41;;;;;;;2.65;2.05;;;;;;;;;;5058969;28;20254;-75
2021/01/10 03:06:07;;;;;;;2.22;2.00;;;-0.20;1.00;;;;;;5059198;28;20536;-75
2021/01/10 03:08:34;;;;;;;3.05;2.47;;;-0.20;1.00;;;;;;5059179;28;20152;-75
2021/01/10 03:11:04;;;;;;;2.50;2.10;;;-0.20;1.00;;;;;;5059281;28;20168;-75
2021/01/10 03:13:32;;;;;;;4.03;1.88;;;-0.20;1.00;;;;;;5051186;28;20171;-75
2021/01/10 03:15:59;;;;;;;1.75;1.65;;;-0.30;1.00;;;;;;5043220;28;20175;-74
2021/01/10 03:18:25;;;;;;;1.83;1.73;;;;;;;;;;5039251;28;20156;-75
2021/01/10 03:20:51;;;;;;;1.75;1.55;;;;;;;;;;5039119;28;20199;-75
2021/01/10 03:23:17;;;;;;;7.30;2.40;;;-0.20;1.00;;;;;;5039082;28;20612;-75
2021/01/10 03:25:43;;;;;;;4.97;2.38;;;-0.10;1.00;;;;;;5038897;28;20407;-76
2021/01/10 03:28:09;;;;;;;5.10;2.73;;;;;;;;;;5042046;28;20199;-75
2021/01/10 03:30:36;;;;;;;5.57;1.98;;;;;;;;;;5038633;28;20426;-75
2021/01/10 03:33:03;;;;;;;3.80;2.53;;;-0.20;1.00;;;;;;5050446;28;20183;-74
2021/01/10 03:35:34;;;;;;;1.90;1.73;;;-0.20;1.00;;;;;;5056989;28;20262;-75
2021/01/10 03:38:01;;;;;;;5.97;3.05;;;-0.30;1.00;;;;;;5058512;28;20167;-75
2021/01/10 03:40:27;;;;;;;2.10;1.90;;;-0.30;1.00;;;;;;5058669;28;20635;-76
2021/01/10 03:42:53;;;;;;;5.23;2.50;;;;;;;;;;5058682;28;20160;-75
2021/01/10 03:45:19;;;;;;;1.87;1.70;;;;;;;;;;5052045;28;20180;-76
2021/01/10 03:47:45;;;;;;;4.45;2.33;;;;;;;;;;5048101;28;20924;-76
2021/01/10 03:50:11;;;;;;;1.98;1.77;;;-0.30;1.00;;;;;;5044428;28;20636;-75
2021/01/10 03:52:37;;;;;;;5.40;2.70;;;;;;;;;;5038707;28;20207;-75
2021/01/10 03:55:04;;;;;;;6.50;2.75;;;-0.40;1.00;;;;;;5039245;28;20172;-75
2021/01/10 03:57:30;;;;;;;2.03;1.52;;;;;;;;;;5038898;28;20244;-76
2021/01/10 03:59:56;;;;;;;7.40;2.30;;;;;;;;;;5054278;28;20310;-77
2021/01/10 04:02:22;;;;;;;3.22;2.20;;;-0.60;1.00;;;;;;5038579;28;20426;-77
2021/01/10 04:04:48;;;;;;;2.67;1.90;;;;;;;;;;5044347;28;20183;-77
2021/01/10 04:07:13;;;;;;;3.03;2.50;;;-0.60;1.00;;;;;;5055439;28;20294;-78
2021/01/10 04:09:39;;;;;;;2.03;1.90;;;-0.60;1.00;;;;;;5046691;28;20268;-78
2021/01/10 04:12:05;;;;;;;3.40;2.50;;;;;;;;;;5035593;28;20161;-78
2021/01/10 04:14:31;;;;;;;3.80;3.28;;;-0.60;1.00;;;;;;5035744;28;20247;-78
2021/01/10 04:16:57;;;;;;;3.80;2.27;;;;;;;;;;5035827;28;20291;-78
2021/01/10 04:19:23;;;;;;;6.13;3.07;;;;;;;;;;5036279;28;20215;-78
2021/01/10 04:21:49;;;;;;;4.68;2.22;;;;;;;;;;5055515;28;20390;-78
2021/01/10 04:24:15;;;;;;;8.63;2.50;;;;;;;;;;5040010;28;20168;-79
2021/01/10 04:26:49;;;;;;;5.47;3.20;;;-0.50;1.00;;;;;;5039258;28;20802;-78
2021/01/10 04:29:19;;;;;;;5.03;3.05;;;-0.50;1.00;;;;;;5035098;28;20184;-76
2021/01/10 04:31:45;;;;;;;3.47;2.15;;;;;;;;;;5043643;28;20271;-75
2021/01/10 04:34:11;;;;;;;6.38;4.13;;;-0.40;1.00;;;;;;5035188;28;20529;-76
2021/01/10 04:36:37;;;;;;;2.67;2.30;;;;;;;;;;5034864;28;20250;-76
2021/01/10 04:39:03;;;;;;;4.93;2.40;;;-0.50;1.00;;;;;;5034789;28;20199;-76
2021/01/10 04:41:31;;;;;;;2.70;1.80;;;-0.50;1.00;;;;;;5049929;28;20751;-75
2021/01/10 04:43:57;;;;;;;2.97;2.35;;;;;;;;;;5054465;28;20182;-75
2021/01/10 04:46:23;;;;;;;3.97;3.00;;;;;;;;;;5055215;28;20156;-79
2021/01/10 04:48:49;;;;;;;5.70;2.38;;;;;;;;;;5055127;28;20398;-78
2021/01/10 04:51:16;;;;;;;5.10;2.40;;;;;;;;;;5047150;28;20580;-77
2021/01/10 04:53:46;;;;;;;12.32;5.35;;;-0.50;1.00;;;;;;5034132;28;20168;-77
2021/01/10 04:56:13;;;;;;;4.65;2.45;;;-0.70;1.00;;;;;;5046509;28;20171;-77
2021/01/10 04:58:41;;;;;;;10.77;4.43;;;-0.70;1.00;;;;;;5054054;28;20164;-77
2021/01/10 05:01:15;;;;;;;5.47;2.78;;;-0.60;1.00;;;;;;5052787;28;20165;-74
2021/01/10 05:03:41;;;;;;;3.95;2.60;;;-0.50;1.00;;;;;;5040144;28;20172;-75
2021/01/10 05:06:10;;;;;;;3.75;2.70;;;-0.50;1.00;;;;;;5034251;28;20152;-75
2021/01/10 05:08:36;;;;;;;5.65;2.42;;;;;;;;;;5034339;28;20616;-74
2021/01/10 05:11:02;;;;;;;7.57;4.32;;;;;;;;;;5050892;28;20176;-75
2021/01/10 05:13:33;;;;;;;10.98;4.90;;;-0.40;1.00;;;;;;5053943;28;20171;-75
2021/01/10 05:15:59;;;;;;;4.00;2.97;;;-0.40;1.00;;;;;;5054465;28;20627;-77
2021/01/10 05:18:25;;;;;;;2.50;2.30;;;-0.40;1.00;;;;;;5054342;28;20160;-75
2021/01/10 05:20:54;;;;;;;2.77;2.27;;;-0.40;1.00;;;;;;5054072;28;20199;-74
2021/01/10 05:23:26;;;;;;;4.15;2.30;;;-0.40;1.00;;;;;;5051966;28;20174;-74
2021/01/10 05:26:05;;;;;;;4.60;2.20;;;-0.40;1.00;;;;;;5052380;28;20670;-74
2021/01/10 05:28:33;;;;;;;5.20;2.70;;;-0.50;1.00;;;;;;5053634;28;20210;-74
2021/01/10 05:31:00;;;;;;;3.47;2.40;;;-0.50;1.00;;;;;;5035878;28;20654;-80
2021/01/10 05:33:26;;;;;;;2.65;1.90;;;;;;;;;;5047526;28;20273;-80
2021/01/10 05:35:56;;;;;;;3.22;2.10;;;-0.50;1.00;;;;;;5053873;28;20615;-80
2021/01/10 05:38:32;;;;;;;7.05;3.10;;;-0.50;1.00;;;;;;5048620;28;20172;-75
2021/01/10 05:41:00;;;;;;;4.32;2.45;;;-0.60;1.00;;;;;;5033542;28;20722;-75
2021/01/10 05:43:26;;;;;;;4.85;2.20;;;-0.50;1.00;;;;;;5033270;28;20196;-75
2021/01/10 05:45:53;;;;;;;2.08;1.63;;;-0.50;1.00;;;;;;5034915;28;20157;-74
2021/01/10 05:48:19;;;;;;;4.25;1.92;;;-0.50;1.00;;;;;;5050105;28;20182;-75
2021/01/10 05:50:52;;;;;;;3.33;2.45;;;-0.50;1.00;;;;;;5053473;28;20512;-75
2021/01/10 05:53:22;;;;;;;3.72;2.45;;;-0.50;1.00;;;;;;5040923;28;20180;-74
2021/01/10 05:55:59;;;;;;;18.23;3.28;;;-0.50;1.00;;;;;;5053012;28;20171;-74
2021/01/10 05:58:30;;;;;;;6.32;3.22;;;-0.50;1.00;;;;;;5050878;28;20190;-75
2021/01/10 06:01:09;;;;;;;8.23;2.65;;;-0.50;1.00;;;;;;5034150;28;20277;-75
2021/01/10 06:03:36;;;;;;;2.97;2.25;;;-0.50;1.00;;;;;;5033798;28;20595;-75
2021/01/10 06:06:06;;;;;;;4.82;2.78;;;-0.40;1.00;;;;;;5033319;28;20210;-75
2021/01/10 06:08:35;;;;;;;2.97;1.67;;;-0.50;1.00;;;;;;5033457;28;20166;-75
2021/01/10 06:11:16;;;;;;;7.00;3.22;;;-0.50;1.00;;;;;;5051339;28;20270;-75
2021/01/10 06:13:53;;;;;;;8.95;5.13;;;-0.50;1.00;;;;;;5039428;28;20184;-75
2021/01/10 06:16:20;;;;;;;5.80;4.63;;;-0.50;1.00;;;;;;5034078;28;20176;-79
2021/01/10 06:18:52;;;;;;;6.78;4.30;;;-0.50;1.00;;;;;;5033252;28;20160;-78
2021/01/10 06:21:20;;;;;;;6.07;3.72;;;-0.40;1.00;;;;;;5051121;28;20164;-78
2021/01/10 06:23:48;;;;;;;4.95;3.78;;;-0.50;1.00;;;;;;5053111;28;20231;-78
2021/01/10 06:26:17;;;;;;;3.83;2.20;;;-0.40;1.00;;;;;;5053149;28;20152;-78
2021/01/10 06:28:50;;;;;;;2.75;2.22;;;-0.40;1.00;;;;;;5052567;28;20167;-78
2021/01/10 06:31:21;;;;;;;5.80;2.85;;;-0.40;1.00;;;;;;5040010;28;20263;-75
2021/01/10 06:34:03;;;;;;;9.00;2.60;;;-0.40;1.00;;;;;;5034751;28;20177;-75
2021/01/10 06:36:35;;;;;;;3.25;2.13;;;-0.40;1.00;;;;;;5032656;28;20153;-75
2021/01/10 06:39:05;;;;;;;2.60;2.15;;;-0.40;1.00;;;;;;5042918;28;20222;-75
2021/01/10 06:41:57;;;;;;;3.30;2.58;;;-0.50;1.00;;;;;;5034467;28;20169;-75
2021/01/10 06:44:23;;;;;;;6.25;1.80;;;-0.50;1.00;;;;;;5033949;28;20659;-75
2021/01/10 06:46:54;;;;;;;6.45;2.13;;;-0.40;1.00;;;;;;5049159;28;20206;-74
2021/01/10 06:49:20;;;;;;;4.93;2.00;;;-0.40;1.00;;;;;;5032511;28;20666;-75
2021/01/10 06:51:50;;;;;;;4.78;2.38;;;-0.40;1.00;;;;;;5048559;28;20214;-75
2021/01/10 06:54:16;;;;;;;6.03;2.58;;;-0.40;1.00;;;;;;5050205;28;20180;-75
2021/01/10 06:56:48;;;;;;;4.30;2.50;;;-0.30;1.00;;;;;;5045729;28;20188;-75
2021/01/10 06:59:53;;;;;;;7.45;2.42;;;-0.30;1.00;;;;;;5042329;28;20830;-76
2021/01/10 07:02:19;;;;;;;4.35;2.15;;;-0.30;1.00;;;;;;5050712;28;20230;-78
2021/01/10 07:04:54;;;;;;;8.63;4.20;;;-0.30;1.00;;;;;;5050577;28;20160;-81
2021/01/10 07:07:52;;;;;;;2.40;1.98;;;-0.30;1.00;;;;;;5030274;28;20164;-78
2021/01/10 07:10:25;;;;;;;3.63;2.28;;;-0.30;1.00;;;;;;4933187;29;20198;-78
2021/01/10 07:12:51;;;;;;;3.13;1.77;;;-0.30;1.00;;;;;;4937758;29;20218;-78
2021/01/10 07:15:17;;;;;;;3.25;2.33;;;-0.30;1.00;;;;;;4952220;29;20271;-78
2021/01/10 07:18:03;;;;;;;6.40;2.63;;;-0.30;1.00;;;;;;4952616;29;20179;-75
2021/01/10 07:20:39;;;;;;;3.05;2.13;;;-0.20;1.00;;;;;;4951939;29;20269;-75
2021/01/10 07:23:24;;;;;;;10.02;4.13;;;-0.20;1.00;;;;;;4952245;29;20159;-75
2021/01/10 07:25:49;;;;;;;4.63;2.05;;;-0.30;1.00;;;;;;4952121;28;20409;-83
2021/01/10 07:28:40;;;;;;;5.63;2.60;;;-0.20;1.00;;;;;;4954016;28;20233;-76
2021/01/10 07:31:21;;;;;;;4.97;2.55;;;-0.20;1.00;;;;;;4967383;28;20545;-76
2021/01/10 07:34:08;;;;;;;9.73;3.25;;;-0.10;1.00;;;;;;4956044;28;20338;-75
2021/01/10 07:36:47;;;;;;;1.85;1.40;;;-0.10;1.00;;;;;;4952520;28;20629;-74
2021/01/10 07:39:12;;;;;;;3.30;2.35;;;-0.20;1.00;;;;;;4951817;28;20203;-79
2021/01/10 07:41:38;;;;;;;5.23;2.30;;;;;;;;;;4958343;28;20190;-75
2021/01/10 07:44:04;;;;;;;3.00;2.28;;;-0.10;1.00;;;;;;4967527;28;20166;-75
2021/01/10 07:46:57;;;;;;;2.47;1.93;;;-0.10;1.00;;;;;;5036528;28;20172;-78
2021/01/10 07:49:31;;;;;;;10.30;2.67;;;-0.20;1.00;;;;;;5047084;28;20483;-78
2021/01/10 07:51:57;;;;;;;4.80;2.40;;;-0.20;1.00;;;;;;5045741;28;20264;-77
2021/01/10 07:54:52;;;;;;;3.95;2.42;;;-0.20;1.00;;;;;;5039083;28;20183;-77
2021/01/10 07:57:25;;;;;;;10.55;3.00;;;-0.20;1.00;;;;;;5036075;28;20184;-77
2021/01/10 08:00:20;;;;;;;4.05;2.15;;;-0.20;1.00;;;;;;5034187;28;20611;-78
2021/01/10 08:02:46;;;;;;;2.80;2.08;;;;;;;;;;5021845;28;20196;-78
2021/01/10 08:05:15;;;;;;;3.10;2.20;;;-0.30;1.00;;;;;;5033407;28;20184;-79
2021/01/10 08:07:54;;;;;;;4.43;3.10;;;-0.40;1.00;;;;;;5032075;28;20434;-79
2021/01/10 08:10:21;;;;;;;7.70;4.63;;;-0.40;1.00;;;;;;5021597;28;20177;-78
2021/01/10 08:12:47;;;;;;;6.82;4.32;;;-0.30;1.00;;;;;;5018028;28;20179;-78
2021/01/10 08:15:13;;;;;;;8.67;4.10;;;;;;;;;;5017251;28;20185;-78
2021/01/10 08:17:39;;;;;;;5.35;1.65;;;-0.20;1.00;;;;;;5013566;28;20418;-78
2021/01/10 08:20:09;;;;;;;4.05;2.60;;;-0.20;1.00;;;;;;5013384;28;20204;-78
2021/01/10 08:22:35;;;;;;;2.83;1.95;;;;;;;;;;5012631;28;20181;-78
2021/01/10 08:25:02;;;;;;;1.90;1.80;;;-0.20;1.00;;;;;;5013315;28;20210;-78
2021/01/10 08:27:28;;;;;;;6.78;2.50;;;-0.20;1.00;;;;;;5013368;28;20181;-78
2021/01/10 08:29:54;;;;;;;2.78;1.70;;;-0.20;1.00;;;;;;5013274;28;20184;-78
2021/01/10 08:32:21;;;;;;;4.47;2.40;;;-0.10;1.00;;;;;;5018201;28;20196;-78
2021/01/10 08:34:55;;;;;;;4.20;2.10;;;-0.10;1.00;;;;;;5027438;28;20198;-78
2021/01/10 08:37:23;;;;;;;2.42;2.15;;;-0.10;1.00;;;;;;5031187;28;20200;-78
2021/01/10 08:40:06;;;;;;;3.15;2.30;;;-0.20;1.00;;;;;;5030846;28;20204;-78
2021/01/10 08:42:33;;;;;;;5.95;2.63;;;-0.20;1.00;;;;;;5035065;28;20160;-79
2021/01/10 08:45:21;;;;;;;2.13;1.73;;;-0.20;1.00;;;;;;5042840;28;20175;-78
2021/01/10 08:47:48;;;;;;;2.67;2.05;;;-0.20;1.00;;;;;;5055112;28;20178;-78
2021/01/10 08:50:14;;;;;;;8.63;2.67;;;-0.10;1.00;;;;;;5054663;28;20220;-78
2021/01/10 08:52:56;;;;;;;4.28;2.45;;;-0.10;1.00;;;;;;5042931;28;20176;-77
2021/01/10 08:55:31;;;;;;;3.83;2.20;;;-0.10;1.00;;;;;;5037367;28;20533;-79
2021/01/10 08:57:57;;;;;;;2.60;2.40;;;0.00;1.00;;;;;;5054885;28;20155;-78
2021/01/10 09:00:23;;;;;;;4.03;1.83;;;;;;;;;;5054388;28;20210;-78
2021/01/10 09:02:48;;;;;;;1.77;1.67;;;0.00;1.00;;;;;;5054998;28;20634;-78
2021/01/10 09:05:27;;;;;;;3.93;1.70;;;0.00;1.00;;;;;;5052939;28;20172;-78
2021/01/10 09:08:01;;;;;;;2.60;2.40;;;0.00;1.00;;;;;;5052685;28;20218;-78
2021/01/10 09:10:30;;;;;;;3.15;1.95;;;0.00;1.00;;;;;;5033742;28;20215;-78
2021/01/10 09:13:06;;;;;;;2.03;1.83;;;0.00;1.00;;;;;;5034409;28;20214;-78
2021/01/10 09:15:37;;;;;;;2.95;1.95;;;0.00;1.00;;;;;;5034177;28;20654;-78
2021/01/10 09:18:09;;;;;;;1.33;1.33;;;-0.10;1.00;;;;;;5034512;28;20183;-75
2021/01/10 09:21:26;;;;;;;6.60;2.78;;;-0.10;1.00;;;;;;5034084;28;20564;-75
2021/01/10 09:23:56;;;;;;;4.88;1.52;;;0.00;1.00;;;;;;5010719;28;20209;-74
2021/01/10 09:26:29;;;;;;;3.42;2.25;;;0.00;1.00;;;;;;5023906;28;20172;-75
2021/01/10 09:28:55;;;;;;;12.27;3.15;;;0.10;1.00;;;;;;5029239;28;20238;-74
2021/01/10 09:31:35;;;;;;;2.85;1.70;;;0.10;1.00;;;;;;5031826;28;20172;-75
2021/01/10 09:34:05;;;;;;;3.45;2.30;;;0.20;1.00;;;;;;5024684;28;20196;-75
2021/01/10 09:36:31;;;;;;;2.47;2.28;;;0.30;1.00;;;;;;5028611;28;20268;-75
2021/01/10 09:38:57;;;;;;;2.05;1.85;;;0.40;1.00;;;;;;5025674;28;20172;-75
2021/01/10 09:41:23;;;;;;;2.30;1.80;;;;;;;;;;5011310;28;20197;-75
2021/01/10 09:43:50;;;;;;;4.50;2.40;;;0.50;1.00;;;;;;5021104;28;20686;-75
2021/01/10 09:46:33;;;;;;;4.57;2.20;;;0.60;1.00;;;;;;5031326;28;20165;-75
2021/01/10 09:49:05;;;;;;;3.05;2.30;;;0.70;1.00;;;;;;5026242;28;20594;-78
2021/01/10 09:51:40;;;;;;;5.35;2.60;;;0.80;1.00;;;;;;5015156;28;20173;-78
2021/01/10 09:54:14;;;;;;;2.95;2.75;;;0.90;1.00;;;;;;5023752;28;20188;-78
2021/01/10 09:56:40;;;;;;;3.17;2.72;;;;;;;;;;5023218;28;20176;-78
2021/01/10 09:59:31;;;;;;;8.70;3.80;;;1.10;1.00;;;;;;5031298;28;20212;-78
2021/01/10 10:01:57;;;;;;;5.93;3.42;;;;;;;;;;5052353;28;20164;-76
2021/01/10 10:04:33;;;;;;;6.32;3.80;;;1.30;1.00;;;;;;5052961;28;20185;-79
2021/01/10 10:06:59;;;;;;;8.05;4.32;;;1.30;1.00;;;;;;5052801;28;20247;-80
2021/01/10 10:09:49;;;;;;;11.05;5.40;;;1.50;1.00;;;;;;5052947;28;20239;-79
2021/01/10 10:12:15;;;;;;;11.57;5.40;;;;;;;;;;5033256;28;20619;-78
2021/01/10 10:14:55;;;;;;;11.23;4.93;;;1.70;1.00;;;;;;5033576;28;20164;-79
2021/01/10 10:17:27;;;;;;;5.80;4.38;;;1.90;1.00;;;;;;5033158;28;20164;-78
2021/01/10 10:19:53;;;;;;;8.60;4.80;;;;;;;;;;5033599;28;20184;-82
2021/01/10 10:22:27;;;;;;;11.90;4.57;;;2.10;1.00;;;;;;5040256;28;20172;-81
2021/01/10 10:24:54;;;;;;;11.30;4.32;;;2.10;1.00;;;;;;5051869;28;20180;-81
2021/01/10 10:27:20;;;;;;;8.30;4.50;;;2.20;1.00;;;;;;5047219;28;20168;-81
2021/01/10 10:29:46;;;;;;;8.85;4.45;;;2.30;1.00;;;;;;5052510;28;20178;-81
2021/01/10 10:32:12;;;;;;;11.50;5.60;;;;;;;;;;5040856;28;20164;-81
2021/01/10 10:34:38;;;;;;;10.55;4.80;;;;;;;;;;5049482;28;20180;-74
2021/01/10 10:37:06;;;;;;;13.18;5.00;;;2.50;1.00;;;;;;5046692;28;20187;-74
2021/01/10 10:39:32;;;;;;;10.52;4.80;;;2.60;1.00;;;;;;5051318;28;20195;-71
2021/01/10 10:41:58;;;;;;;11.87;5.37;;;;;;;;;;5045041;28;20175;-72
2021/01/10 10:44:24;;;;;;;10.83;5.30;;;;;;;;;;5052483;28;20197;-71
2021/01/10 10:46:50;;;;;;;10.55;6.20;;;2.80;1.00;;;;;;5047177;28;20433;-73
2021/01/10 10:49:15;;;;;;;8.17;4.90;;;2.90;1.00;;;;;;5047591;28;20237;-73
2021/01/10 10:51:41;;;;;;;13.50;5.10;;;;;;;;;;5042066;28;20199;-73
2021/01/10 10:54:08;;;;;;;12.43;6.53;;;3.00;1.00;;;;;;5041312;28;20188;-74
2021/01/10 10:56:35;;;;;;;7.25;4.63;;;3.10;1.00;;;;;;5050729;28;20804;-73
2021/01/10 10:59:02;;;;;;;11.48;5.75;;;;;;;;;;5047365;28;20282;-76
2021/01/10 11:01:54;;;;;;;8.27;5.15;;;3.30;1.00;;;;;;5038409;28;20256;-74
2021/01/10 11:04:19;;;;;;;9.15;4.65;;;3.30;1.00;;;;;;5052676;28;20309;-74
2021/01/10 11:06:46;;;;;;;9.13;4.70;;;3.40;1.00;;;;;;5046288;28;20164;-74
2021/01/10 11:09:12;;;;;;;9.35;5.03;;;;;;;;;;5032111;28;20548;-74
2021/01/10 11:11:46;;;;;;;12.80;5.10;;;3.50;1.00;;;;;;5032147;28;20673;-74
2021/01/10 11:14:13;;;;;;;10.60;4.97;;;3.60;1.00;;;;;;5035140;28;20643;-74
2021/01/10 11:16:42;;;;;;;7.50;4.90;;;3.60;1.00;;;;;;5036074;28;20180;-74
2021/01/10 11:19:09;;;;;;;12.07;5.05;;;3.70;1.00;;;;;;5036639;28;20205;-74
2021/01/10 11:21:37;;;;;;;9.27;4.90;;;3.70;1.00;;;;;;5036547;28;20171;-74
2021/01/10 11:24:03;;;;;;;10.00;4.88;;;3.80;1.00;;;;;;5036113;28;20230;-73
2021/01/10 11:26:35;;;;;;;8.30;4.85;;;3.70;1.00;;;;;;5039230;28;20195;-74
2021/01/10 11:29:04;;;;;;;6.85;4.90;;;3.80;1.00;;;;;;5057151;28;20160;-74
2021/01/10 11:31:32;;;;;;;8.35;4.75;;;3.90;1.00;;;;;;5050326;28;20192;-73
2021/01/10 11:37:47;;;;;;;7.13;4.15;;;4.00;1.00;;;;;;5041352;28;20259;-79
2021/01/10 11:43:35;;;;;;;3.97;3.50;;;4.00;1.00;;;;;;5042255;28;20562;-80
2021/01/10 11:46:51;;;;;;;9.63;4.28;;;4.00;1.00;;;;;;5056888;28;20186;-80
2021/01/10 11:49:28;;;;;;;12.23;5.22;;;4.00;1.00;;;;;;5040201;28;20287;-79
2021/01/10 11:55:16;;;;;;;6.57;4.03;;;4.00;1.00;;;;;;5054486;28;20273;-79
2021/01/10 11:57:51;;;;;;;6.40;3.83;;;4.10;1.00;;;;;;5046524;28;20187;-80
2021/01/10 12:01:03;;;;;;;7.75;3.55;;;4.10;1.00;;;;;;5052187;28;20797;-81
2021/01/10 12:03:51;;;;;;;9.93;4.70;;;4.20;1.00;;;;;;5048767;28;20176;-80
2021/01/10 12:06:20;;;;;;;8.25;4.20;;;4.30;1.00;;;;;;5055807;28;20152;-80
2021/01/10 12:08:46;;;;;;;8.00;4.63;;;4.30;1.00;;;;;;5055893;28;20156;-80
2021/01/10 12:11:15;;;;;;;9.90;4.50;;;4.40;1.00;;;;;;5055502;28;20164;-80
2021/01/10 12:13:42;;;;;;;7.93;4.60;;;4.30;1.00;;;;;;5055554;28;20155;-80
2021/01/10 12:16:11;;;;;;;10.07;5.15;;;4.40;1.00;;;;;;5055353;28;20168;-80
2021/01/10 12:18:37;;;;;;;7.93;4.07;;;;;;;;;;5055355;28;20188;-80
2021/01/10 12:21:04;;;;;;;6.88;4.60;;;4.40;1.00;;;;;;5056050;28;20187;-73
2021/01/10 12:23:34;;;;;;;9.38;4.95;;;4.50;1.00;;;;;;5055057;28;20163;-74
2021/01/10 12:26:00;;;;;;;5.43;3.85;;;;;;;;;;5052118;28;20168;-73
2021/01/10 12:28:26;;;;;;;9.10;4.40;;;;;;;;;;5054521;28;20164;-74
2021/01/10 12:30:52;;;;;;;8.47;5.20;;;4.60;1.00;;;;;;5054735;28;20183;-74
2021/01/10 12:33:18;;;;;;;9.27;5.20;;;;;;;;;;5055149;28;20757;-73
2021/01/10 12:35:44;;;;;;;7.78;4.32;;;4.70;1.00;;;;;;5054786;28;20156;-80
2021/01/10 12:38:10;;;;;;;8.07;4.97;;;;;;;;;;5039270;28;20201;-80
2021/01/10 12:40:35;;;;;;;11.20;5.03;;;4.80;1.00;;;;;;5054939;28;20192;-80
2021/01/10 12:43:01;;;;;;;6.93;4.10;;;;;;;;;;5054594;28;20444;-80
2021/01/10 12:45:27;;;;;;;6.63;4.57;;;4.80;1.00;;;;;;5054919;28;20217;-80
2021/01/10 12:47:53;;;;;;;11.77;5.07;;;;;;;;;;5054858;28;20474;-80
2021/01/10 12:50:19;;;;;;;6.53;4.30;;;;;;;;;;5053801;28;20259;-80
2021/01/10 12:52:45;;;;;;;6.97;4.60;;;;;;;;;;5051139;28;20423;-79
2021/01/10 12:55:11;;;;;;;7.10;4.13;;;5.00;1.00;;;;;;5053922;28;20413;-80
2021/01/10 12:57:37;;;;;;;6.67;4.50;;;5.00;1.00;;;;;;5054535;28;20525;-80
2021/01/10 13:00:10;;;;;;;8.00;4.45;;;5.00;1.00;;;;;;5054289;28;20531;-80
2021/01/10 13:02:39;;;;;;;7.82;4.53;;;4.80;1.00;;;;;;5054625;28;20172;-80
2021/01/10 13:05:06;;;;;;;6.65;4.57;;;4.90;1.00;;;;;;5055264;28;20526;-80
2021/01/10 13:07:35;;;;;;;6.10;3.30;;;4.90;1.00;;;;;;5054256;28;20203;-80
2021/01/10 13:10:02;;;;;;;7.07;3.97;;;4.80;1.00;;;;;;5054497;28;20155;-80
2021/01/10 13:12:33;;;;;;;6.85;3.92;;;4.80;1.00;;;;;;5054286;28;20168;-80
2021/01/10 13:14:59;;;;;;;5.63;3.80;;;4.80;1.00;;;;;;5054517;28;20615;-80
2021/01/10 13:17:26;;;;;;;7.65;4.03;;;5.00;1.00;;;;;;5054301;28;20560;-80
2021/01/10 13:19:56;;;;;;;8.57;4.30;;;4.80;1.00;;;;;;5054586;28;20192;-78
2021/01/10 13:22:22;;;;;;;7.63;4.57;;;;;;;;;;5054056;28;20498;-73
2021/01/10 13:24:48;;;;;;;11.00;5.00;;;;;;;;;;5054075;28;20156;-80
2021/01/10 13:27:14;;;;;;;5.30;3.73;;;;;;;;;;5052993;28;20675;-80
2021/01/10 13:29:40;;;;;;;6.13;3.40;;;;;;;;;;5053972;28;20407;-80
2021/01/10 13:32:06;;;;;;;6.07;3.60;;;4.70;1.00;;;;;;5054224;28;20528;-80
2021/01/10 13:34:31;;;;;;;5.87;3.50;;;4.60;1.00;;;;;;5054019;28;20885;-80
2021/01/10 13:37:33;;;;;;;4.20;3.50;;;4.60;1.00;;;;;;5049334;28;20592;-79
2021/01/10 13:40:39;;;;;;;6.05;3.53;;;4.80;1.00;;;;;;5050561;28;20222;-80
2021/01/10 13:46:27;;;;;;;5.28;3.63;;;4.80;1.00;;;;;;5039111;28;20176;-80
2021/01/10 13:52:14;;;;;;;9.20;4.47;;;4.80;1.00;;;;;;5038353;28;20243;-72
2021/01/10 13:54:40;;;;;;;17.38;3.45;;;;;;;;;;5044607;28;20275;-73